Cat Creek, Montana
Current Conditions -  °F | °C
As of 4:55 PM on Saturday 25 Oct 2014 (Local Time) from KMVH Reporting Station
Clear Clear  
Wind Chill: 61°   Ceiling: Unl
Heat Index: 61°   Visibility: 10mi
Dew Point: 36°   Wind: 13mph
Humidity: 39%   Direction: 240°WSW
Pressure: 29.81"   Gusts: NA
Location:  47.1145°N, 108.252°W
Report Text: KMVH 252255Z AUTO 24011KT 10SM CLR 16/02 A2981 RMK A01
Loading
Personal Weather Stations






























Interactive Weather Map
Tropical Storm Tracking
New forecast layout! Learn more

10-Day Weather Forecast

Advertisements
Track Severe Weather on mobile